createdAt,value
2023-04-25T00:00:21.839Z,438.00
2023-04-25T00:01:21.822Z,438.00
2023-04-25T00:02:21.921Z,436.00
2023-04-25T00:03:22.112Z,437.00
2023-04-25T00:04:22.004Z,436.00
2023-04-25T00:05:22.008Z,437.00
2023-04-25T00:06:21.747Z,434.00
2023-04-25T00:07:21.731Z,433.00
2023-04-25T00:08:21.716Z,436.00
2023-04-25T00:09:21.704Z,438.00
2023-04-25T00:10:21.736Z,436.00
2023-04-25T00:11:21.787Z,436.00
2023-04-25T00:12:21.835Z,437.00
2023-04-25T00:13:21.917Z,436.00
2023-04-25T00:14:21.945Z,437.00
2023-04-25T00:15:21.993Z,434.00
2023-04-25T00:16:22.140Z,434.00
2023-04-25T00:17:22.121Z,434.00
2023-04-25T00:18:22.135Z,435.00
2023-04-25T00:19:22.188Z,435.00
2023-04-25T00:20:22.229Z,434.00
2023-04-25T00:21:22.274Z,435.00
2023-04-25T00:22:22.337Z,435.00
2023-04-25T00:23:22.378Z,435.00
2023-04-25T00:24:22.431Z,435.00
2023-04-25T00:25:22.486Z,434.00
2023-04-25T00:26:22.538Z,435.00
2023-04-25T00:27:22.586Z,436.00
2023-04-25T00:28:22.654Z,436.00
2023-04-25T00:29:22.704Z,434.00
2023-04-25T00:30:22.714Z,432.00
2023-04-25T00:31:22.769Z,431.00
2023-04-25T00:32:22.803Z,428.00
2023-04-25T00:33:22.850Z,428.00
2023-04-25T00:34:22.919Z,429.00
2023-04-25T00:35:22.953Z,429.00
2023-04-25T00:36:22.989Z,430.00
2023-04-25T00:37:23.047Z,426.00
2023-04-25T00:38:23.082Z,424.00
2023-04-25T00:39:23.133Z,425.00
2023-04-25T00:40:23.176Z,425.00
2023-04-25T00:41:23.258Z,423.00
2023-04-25T00:42:23.286Z,425.00
2023-04-25T00:43:23.310Z,425.00
2023-04-25T00:44:23.355Z,426.00
2023-04-25T00:45:23.440Z,428.00
2023-04-25T00:46:23.505Z,430.00
2023-04-25T00:47:23.557Z,429.00
2023-04-25T00:48:23.528Z,428.00
2023-04-25T00:49:23.580Z,427.00
2023-04-25T00:50:23.625Z,428.00
2023-04-25T00:51:23.650Z,428.00
2023-04-25T00:52:23.697Z,428.00
2023-04-25T00:53:23.745Z,429.00
2023-04-25T00:54:23.802Z,428.00
2023-04-25T00:55:23.834Z,427.00
2023-04-25T00:56:23.897Z,427.00
2023-04-25T00:57:23.928Z,427.00
2023-04-25T00:58:23.952Z,427.00
2023-04-25T00:59:24.002Z,427.00
2023-04-25T01:00:24.029Z,428.00
2023-04-25T01:01:24.129Z,428.00
2023-04-25T01:02:24.352Z,430.00
2023-04-25T01:03:24.397Z,431.00
2023-04-25T01:04:24.347Z,433.00
2023-04-25T01:05:24.253Z,434.00
2023-04-25T01:06:24.277Z,431.00
2023-04-25T01:07:24.312Z,429.00
2023-04-25T01:08:24.352Z,430.00
2023-04-25T01:09:24.394Z,430.00
2023-04-25T01:10:24.456Z,430.00
2023-04-25T01:11:24.481Z,430.00
2023-04-25T01:12:24.528Z,431.00
2023-04-25T01:13:24.560Z,430.00
2023-04-25T01:14:24.613Z,431.00
2023-04-25T01:15:24.637Z,430.00
2023-04-25T01:16:24.738Z,431.00
2023-04-25T01:17:24.792Z,431.00
2023-04-25T01:18:24.766Z,430.00
2023-04-25T01:19:24.802Z,431.00
2023-04-25T01:20:24.938Z,431.00
2023-04-25T01:21:24.896Z,432.00
2023-04-25T01:22:24.927Z,431.00
2023-04-25T01:23:24.969Z,431.00
2023-04-25T01:24:25.004Z,431.00
2023-04-25T01:25:25.048Z,430.00
2023-04-25T01:26:25.096Z,427.00
2023-04-25T01:27:25.141Z,425.00
2023-04-25T01:28:25.181Z,427.00
2023-04-25T01:29:25.240Z,428.00
2023-04-25T01:30:25.267Z,430.00
2023-04-25T01:31:25.342Z,432.00
2023-04-25T01:32:25.400Z,431.00
2023-04-25T01:33:25.426Z,431.00
2023-04-25T01:34:25.449Z,429.00
2023-04-25T01:35:25.491Z,430.00
2023-04-25T01:36:25.540Z,432.00
2023-04-25T01:37:25.580Z,434.00
2023-04-25T01:38:25.617Z,434.00
2023-04-25T01:39:25.665Z,434.00
2023-04-25T01:40:25.712Z,433.00
2023-04-25T01:41:25.762Z,433.00
2023-04-25T01:42:25.807Z,433.00
2023-04-25T01:43:25.838Z,429.00
2023-04-25T01:44:25.875Z,428.00
2023-04-25T01:45:25.915Z,428.00
2023-04-25T01:46:26.006Z,427.00
2023-04-25T01:47:26.025Z,427.00
2023-04-25T01:48:26.048Z,428.00
2023-04-25T01:49:25.054Z,426.00
2023-04-25T01:50:26.005Z,427.00
2023-04-25T01:51:25.984Z,427.00
2023-04-25T01:52:25.961Z,429.00
2023-04-25T01:53:25.945Z,427.00
2023-04-25T01:54:25.940Z,428.00
2023-04-25T01:55:25.910Z,430.00
2023-04-25T01:56:25.889Z,430.00
2023-04-25T01:57:25.874Z,431.00
2023-04-25T01:58:25.858Z,429.00
2023-04-25T01:59:25.860Z,431.00
2023-04-25T02:00:25.798Z,431.00
2023-04-25T02:01:25.808Z,429.00
2023-04-25T02:02:25.917Z,428.00
2023-04-25T02:03:25.868Z,427.00
2023-04-25T02:04:25.815Z,427.00
2023-04-25T02:05:25.731Z,430.00
2023-04-25T02:06:25.684Z,432.00
2023-04-25T02:07:25.668Z,430.00
2023-04-25T02:08:25.656Z,430.00
2023-04-25T02:09:25.673Z,428.00
2023-04-25T02:10:25.738Z,428.00
2023-04-25T02:11:25.764Z,428.00
2023-04-25T02:12:25.810Z,427.00
2023-04-25T02:13:25.868Z,426.00
2023-04-25T02:14:25.910Z,427.00
2023-04-25T02:15:26.038Z,424.00
2023-04-25T02:16:26.158Z,424.00
2023-04-25T02:17:26.045Z,425.00
2023-04-25T02:18:26.101Z,425.00
2023-04-25T02:19:26.153Z,424.00
2023-04-25T02:20:26.184Z,425.00
2023-04-25T02:21:26.261Z,428.00
2023-04-25T02:22:26.270Z,428.00
2023-04-25T02:23:26.321Z,427.00
2023-04-25T02:24:26.377Z,424.00
2023-04-25T02:25:26.411Z,424.00
2023-04-25T02:26:26.464Z,421.00
2023-04-25T02:27:26.522Z,419.00
2023-04-25T02:28:26.557Z,419.00
2023-04-25T02:29:26.608Z,421.00
2023-04-25T02:30:26.654Z,419.00
2023-04-25T02:31:26.741Z,421.00
2023-04-25T02:32:26.787Z,420.00
2023-04-25T02:33:26.795Z,419.00
2023-04-25T02:34:26.845Z,420.00
2023-04-25T02:35:26.887Z,420.00
2023-04-25T02:36:26.936Z,419.00
2023-04-25T02:37:27.000Z,420.00
2023-04-25T02:38:27.036Z,420.00
2023-04-25T02:39:27.072Z,419.00
2023-04-25T02:40:27.137Z,418.00
2023-04-25T02:41:27.163Z,417.00
2023-04-25T02:42:27.211Z,417.00
2023-04-25T02:43:27.261Z,417.00
2023-04-25T02:44:27.365Z,417.00
2023-04-25T02:45:27.373Z,418.00
2023-04-25T02:46:38.420Z,419.00
2023-04-25T02:47:27.459Z,419.00
2023-04-25T02:48:27.362Z,422.00
2023-04-25T02:49:27.354Z,423.00
2023-04-25T02:50:27.331Z,423.00
2023-04-25T02:51:27.319Z,424.00
2023-04-25T02:52:27.299Z,426.00
2023-04-25T02:53:27.305Z,426.00
2023-04-25T02:54:27.257Z,427.00
2023-04-25T02:55:28.443Z,427.00
2023-04-25T02:56:27.402Z,425.00
2023-04-25T02:57:27.207Z,428.00
2023-04-25T02:58:27.196Z,426.00
2023-04-25T02:59:27.249Z,426.00
2023-04-25T03:00:27.347Z,428.00
2023-04-25T03:01:27.630Z,426.00
2023-04-25T03:02:27.497Z,425.00
2023-04-25T03:03:27.605Z,422.00
2023-04-25T03:04:27.579Z,423.00
2023-04-25T03:05:27.572Z,421.00
2023-04-25T03:06:27.613Z,424.00
2023-04-25T03:07:27.666Z,425.00
2023-04-25T03:08:27.703Z,425.00
2023-04-25T03:09:27.783Z,424.00
2023-04-25T03:10:27.832Z,424.00
2023-04-25T03:11:27.864Z,424.00
2023-04-25T03:12:27.910Z,422.00
2023-04-25T03:13:27.959Z,422.00
2023-04-25T03:14:28.735Z,424.00
2023-04-25T03:15:28.085Z,424.00
2023-04-25T03:16:28.222Z,426.00
2023-04-25T03:17:28.197Z,426.00
2023-04-25T03:18:28.223Z,425.00
2023-04-25T03:19:28.286Z,426.00
2023-04-25T03:20:28.384Z,427.00
2023-04-25T03:21:28.355Z,429.00
2023-04-25T03:22:28.403Z,427.00
2023-04-25T03:23:28.458Z,429.00
2023-04-25T03:24:28.503Z,429.00
2023-04-25T03:25:28.589Z,430.00
2023-04-25T03:26:28.613Z,428.00
2023-04-25T03:27:28.656Z,429.00
2023-04-25T03:28:28.714Z,427.00
2023-04-25T03:29:28.765Z,428.00
2023-04-25T03:30:28.822Z,426.00
2023-04-25T03:31:28.876Z,427.00
2023-04-25T03:32:28.923Z,427.00
2023-04-25T03:33:28.955Z,426.00
2023-04-25T03:34:29.026Z,424.00
2023-04-25T03:35:29.059Z,427.00
2023-04-25T03:36:29.112Z,428.00
2023-04-25T03:37:29.156Z,427.00
2023-04-25T03:38:29.203Z,426.00
2023-04-25T03:39:29.254Z,426.00
2023-04-25T03:40:29.323Z,426.00
2023-04-25T03:41:29.376Z,427.00
2023-04-25T03:42:29.396Z,425.00
2023-04-25T03:43:29.431Z,422.00
2023-04-25T03:44:29.484Z,422.00
2023-04-25T03:45:29.533Z,421.00
2023-04-25T03:46:29.611Z,417.00
2023-04-25T03:47:29.782Z,419.00
2023-04-25T03:48:29.703Z,418.00
2023-04-25T03:49:29.740Z,420.00
2023-04-25T03:50:29.798Z,420.00
2023-04-25T03:51:29.822Z,420.00
2023-04-25T03:52:29.860Z,421.00
2023-04-25T03:53:29.905Z,422.00
2023-04-25T03:54:29.956Z,422.00
2023-04-25T03:55:30.006Z,423.00
2023-04-25T03:56:30.056Z,424.00
2023-04-25T03:57:30.138Z,425.00
2023-04-25T03:58:30.180Z,423.00
2023-04-25T03:59:30.219Z,421.00
2023-04-25T04:00:30.265Z,420.00
2023-04-25T04:01:30.313Z,418.00
2023-04-25T04:02:30.475Z,421.00
2023-04-25T04:03:30.598Z,421.00
2023-04-25T04:04:30.660Z,422.00
2023-04-25T04:05:30.466Z,426.00
2023-04-25T04:06:30.498Z,427.00
2023-04-25T04:07:30.557Z,426.00
2023-04-25T04:08:30.601Z,424.00
2023-04-25T04:09:30.641Z,422.00
2023-04-25T04:10:30.671Z,423.00
2023-04-25T04:11:30.777Z,422.00
2023-04-25T04:12:30.785Z,423.00
2023-04-25T04:13:30.855Z,425.00
2023-04-25T04:14:30.861Z,425.00
2023-04-25T04:15:30.903Z,424.00
2023-04-25T04:16:32.609Z,424.00
2023-04-25T04:17:30.950Z,424.00
2023-04-25T04:18:30.894Z,424.00
2023-04-25T04:19:30.882Z,426.00
2023-04-25T04:20:30.855Z,425.00
2023-04-25T04:21:30.835Z,422.00
2023-04-25T04:22:30.821Z,424.00
2023-04-25T04:23:30.786Z,423.00
2023-04-25T04:24:30.777Z,422.00
2023-04-25T04:25:30.754Z,424.00
2023-04-25T04:26:30.738Z,422.00
2023-04-25T04:27:30.722Z,423.00
2023-04-25T04:28:30.739Z,424.00
2023-04-25T04:29:31.256Z,424.00
2023-04-25T04:30:30.677Z,426.00
2023-04-25T04:31:30.698Z,426.00
2023-04-25T04:32:30.673Z,425.00
2023-04-25T04:33:30.702Z,426.00
2023-04-25T04:34:30.737Z,427.00
2023-04-25T04:35:30.794Z,427.00
2023-04-25T04:36:30.843Z,425.00
2023-04-25T04:37:30.956Z,425.00
2023-04-25T04:38:30.940Z,423.00
2023-04-25T04:39:30.976Z,421.00
2023-04-25T04:40:31.030Z,418.00
2023-04-25T04:41:31.084Z,414.00
2023-04-25T04:42:31.129Z,415.00
2023-04-25T04:43:31.200Z,413.00
2023-04-25T04:44:31.243Z,413.00
2023-04-25T04:45:31.324Z,416.00
2023-04-25T04:46:31.386Z,416.00
2023-04-25T04:47:31.451Z,415.00
2023-04-25T04:48:31.466Z,416.00
2023-04-25T04:49:31.529Z,415.00
2023-04-25T04:50:31.577Z,417.00
2023-04-25T04:51:31.618Z,420.00
2023-04-25T04:52:31.677Z,421.00
2023-04-25T04:53:31.748Z,418.00
2023-04-25T04:54:31.802Z,420.00
2023-04-25T04:55:31.855Z,418.00
2023-04-25T04:56:31.914Z,419.00
2023-04-25T04:57:31.962Z,419.00
2023-04-25T04:58:32.006Z,421.00
2023-04-25T04:59:32.060Z,420.00
2023-04-25T05:00:32.144Z,420.00
2023-04-25T05:01:32.186Z,422.00
2023-04-25T05:02:32.371Z,422.00
2023-04-25T05:03:32.535Z,422.00
2023-04-25T05:04:32.429Z,422.00
2023-04-25T05:05:32.382Z,421.00
2023-04-25T05:06:32.441Z,422.00
2023-04-25T05:07:32.511Z,421.00
2023-04-25T05:08:32.555Z,421.00
2023-04-25T05:09:32.604Z,421.00
2023-04-25T05:10:32.649Z,421.00
2023-04-25T05:11:32.696Z,419.00
2023-04-25T05:12:33.665Z,416.00
2023-04-25T05:13:32.805Z,414.00
2023-04-25T05:14:32.865Z,413.00
2023-04-25T05:15:32.904Z,414.00
2023-04-25T05:16:32.993Z,413.00
2023-04-25T05:17:33.339Z,414.00
2023-04-25T05:18:33.011Z,416.00
2023-04-25T05:19:33.057Z,415.00
2023-04-25T05:20:33.105Z,412.00
2023-04-25T05:21:33.158Z,410.00
2023-04-25T05:22:33.191Z,412.00
2023-04-25T05:23:33.517Z,414.00
2023-04-25T05:24:33.293Z,419.00
2023-04-25T05:25:33.321Z,426.00
2023-04-25T05:26:33.361Z,433.00
2023-04-25T05:27:33.409Z,434.00
2023-04-25T05:28:33.464Z,430.00
2023-04-25T05:29:33.487Z,432.00
2023-04-25T05:30:33.543Z,432.00
2023-04-25T05:31:33.616Z,431.00
2023-04-25T05:32:33.580Z,434.00
2023-04-25T05:33:33.620Z,436.00
2023-04-25T05:34:33.622Z,438.00
2023-04-25T05:35:33.728Z,441.00
2023-04-25T05:36:33.691Z,440.00
2023-04-25T05:37:33.834Z,442.00
2023-04-25T05:38:35.039Z,442.00
2023-04-25T05:39:33.826Z,442.00
2023-04-25T05:40:33.845Z,440.00
2023-04-25T05:41:33.906Z,443.00
2023-04-25T05:42:34.303Z,445.00
2023-04-25T05:43:34.010Z,449.00
2023-04-25T05:44:34.045Z,449.00
2023-04-25T05:45:34.116Z,452.00
2023-04-25T05:46:34.212Z,458.00
2023-04-25T05:47:34.167Z,462.00
2023-04-25T05:48:34.166Z,463.00
2023-04-25T05:49:34.226Z,467.00
2023-04-25T05:50:34.241Z,473.00
2023-04-25T05:51:34.258Z,482.00
2023-04-25T05:52:34.297Z,493.00
2023-04-25T05:53:34.316Z,504.00
2023-04-25T05:54:34.673Z,513.00
2023-04-25T05:55:38.429Z,520.00
2023-04-25T05:56:34.356Z,525.00
2023-04-25T05:57:34.313Z,539.00
2023-04-25T05:58:34.567Z,560.00
2023-04-25T05:59:34.328Z,584.00
2023-04-25T06:00:35.318Z,597.00
2023-04-25T06:01:35.185Z,613.00
2023-04-25T06:02:34.399Z,672.00
2023-04-25T06:03:34.652Z,683.00
2023-04-25T06:04:34.653Z,695.00
2023-04-25T06:05:34.475Z,709.00
2023-04-25T06:06:34.346Z,716.00
2023-04-25T06:07:34.809Z,726.00
2023-04-25T06:08:34.828Z,734.00
2023-04-25T06:09:34.452Z,743.00
2023-04-25T06:10:34.491Z,756.00
2023-04-25T06:11:34.538Z,765.00
2023-04-25T06:12:35.543Z,774.00
2023-04-25T06:13:34.832Z,782.00
2023-04-25T06:14:35.049Z,791.00
2023-04-25T06:15:34.763Z,798.00
2023-04-25T06:16:34.688Z,806.00
2023-04-25T06:17:35.719Z,808.00
2023-04-25T06:18:34.774Z,812.00
2023-04-25T06:19:34.727Z,819.00
2023-04-25T06:20:34.748Z,820.00
2023-04-25T06:21:35.778Z,822.00
2023-04-25T06:22:34.763Z,831.00
2023-04-25T06:23:34.753Z,834.00
2023-04-25T06:24:34.763Z,832.00
2023-04-25T06:25:34.830Z,832.00
2023-04-25T06:26:34.790Z,829.00
2023-04-25T06:27:34.789Z,833.00
2023-04-25T06:28:34.804Z,841.00
2023-04-25T06:29:34.803Z,843.00
2023-04-25T06:30:35.316Z,838.00
2023-04-25T06:31:34.881Z,842.00
2023-04-25T06:32:34.807Z,852.00
2023-04-25T06:33:34.824Z,857.00
2023-04-25T06:34:34.786Z,864.00
2023-04-25T06:35:34.783Z,869.00
2023-04-25T06:36:34.764Z,876.00
2023-04-25T06:37:35.028Z,875.00
2023-04-25T06:38:34.771Z,880.00
2023-04-25T06:39:34.743Z,883.00
2023-04-25T06:40:34.818Z,883.00
2023-04-25T06:41:34.685Z,874.00
2023-04-25T06:42:34.708Z,879.00
2023-04-25T06:43:34.698Z,884.00
2023-04-25T06:44:34.851Z,886.00
2023-04-25T06:45:34.818Z,879.00
2023-04-25T06:46:36.644Z,875.00
2023-04-25T06:47:34.885Z,877.00
2023-04-25T06:48:34.593Z,875.00
2023-04-25T06:49:35.535Z,875.00
2023-04-25T06:50:34.841Z,873.00
2023-04-25T06:51:34.496Z,875.00
2023-04-25T06:52:50.361Z,874.00
2023-04-25T06:53:34.625Z,871.00
2023-04-25T06:54:35.050Z,868.00
2023-04-25T06:55:34.989Z,864.00
2023-04-25T06:56:34.613Z,860.00
2023-04-25T06:57:34.491Z,855.00
2023-04-25T06:58:35.818Z,852.00
2023-04-25T06:59:34.639Z,853.00
2023-04-25T07:00:34.940Z,854.00
2023-04-25T07:01:34.874Z,853.00
2023-04-25T07:02:34.540Z,846.00
2023-04-25T07:03:34.669Z,852.00
2023-04-25T07:04:34.725Z,853.00
2023-04-25T07:05:34.846Z,850.00
2023-04-25T07:06:34.597Z,840.00
2023-04-25T07:07:35.126Z,834.00
2023-04-25T07:08:34.809Z,834.00
2023-04-25T07:09:34.714Z,840.00
2023-04-25T07:10:34.988Z,844.00
2023-04-25T07:11:34.753Z,847.00
2023-04-25T07:12:34.908Z,853.00
2023-04-25T07:13:34.862Z,857.00
2023-04-25T07:14:34.952Z,862.00
2023-04-25T07:15:35.360Z,858.00
2023-04-25T07:16:34.957Z,859.00
2023-04-25T07:17:35.013Z,857.00
2023-04-25T07:18:34.978Z,841.00
2023-04-25T07:19:35.024Z,842.00
2023-04-25T07:20:35.076Z,848.00
2023-04-25T07:21:35.158Z,859.00
2023-04-25T07:22:35.337Z,869.00
2023-04-25T07:23:35.166Z,873.00
2023-04-25T07:24:35.223Z,878.00
2023-04-25T07:25:35.234Z,876.00
2023-04-25T07:26:35.335Z,875.00
2023-04-25T07:27:35.309Z,874.00
2023-04-25T07:28:35.464Z,858.00
2023-04-25T07:29:35.709Z,844.00
2023-04-25T07:30:35.409Z,849.00
2023-04-25T07:31:36.336Z,852.00
2023-04-25T07:32:36.045Z,847.00
2023-04-25T07:33:35.877Z,844.00
2023-04-25T07:34:36.077Z,842.00
2023-04-25T07:35:36.130Z,831.00
2023-04-25T07:36:36.111Z,836.00
2023-04-25T07:37:35.970Z,835.00
2023-04-25T07:38:35.799Z,834.00
2023-04-25T07:39:35.931Z,833.00
2023-04-25T07:40:35.877Z,831.00
2023-04-25T07:41:36.141Z,823.00
2023-04-25T07:42:36.262Z,827.00
2023-04-25T07:43:36.269Z,824.00
2023-04-25T07:44:36.067Z,821.00
2023-04-25T07:45:36.711Z,839.00
2023-04-25T07:46:36.188Z,859.00
2023-04-25T07:47:37.256Z,894.00
2023-04-25T07:48:36.361Z,874.00
2023-04-25T07:49:36.725Z,816.00
2023-04-25T07:50:36.402Z,815.00
2023-04-25T07:51:36.358Z,811.00
2023-04-25T07:52:36.488Z,818.00
2023-04-25T07:53:36.776Z,824.00
2023-04-25T07:54:36.259Z,818.00
2023-04-25T07:55:36.388Z,824.00
2023-04-25T07:56:49.072Z,834.00
2023-04-25T07:57:36.354Z,844.00
2023-04-25T07:58:36.661Z,855.00
2023-04-25T07:59:39.460Z,863.00
2023-04-25T08:00:37.192Z,867.00
2023-04-25T08:01:36.206Z,868.00
2023-04-25T08:02:36.447Z,870.00
2023-04-25T08:03:36.368Z,874.00
2023-04-25T08:04:36.820Z,875.00
2023-04-25T08:05:36.270Z,869.00
2023-04-25T08:06:36.265Z,875.00
2023-04-25T08:07:36.353Z,885.00
2023-04-25T08:08:36.344Z,878.00
2023-04-25T08:09:36.026Z,868.00
2023-04-25T08:10:36.047Z,860.00
2023-04-25T08:11:36.360Z,857.00
2023-04-25T08:12:36.093Z,863.00
2023-04-25T08:13:36.669Z,867.00
2023-04-25T08:14:36.135Z,865.00
2023-04-25T08:15:36.227Z,863.00
2023-04-25T08:16:36.370Z,858.00
2023-04-25T08:17:36.235Z,857.00
2023-04-25T08:18:36.361Z,857.00
2023-04-25T08:19:36.286Z,855.00
2023-04-25T08:20:36.433Z,855.00
2023-04-25T08:21:36.329Z,855.00
2023-04-25T08:22:36.377Z,848.00
2023-04-25T08:23:40.099Z,858.00
2023-04-25T08:24:39.191Z,862.00
2023-04-25T08:25:36.314Z,870.00
2023-04-25T08:26:36.389Z,869.00
2023-04-25T08:27:36.268Z,864.00
2023-04-25T08:28:36.421Z,866.00
2023-04-25T08:29:36.192Z,865.00
2023-04-25T08:30:36.174Z,868.00
2023-04-25T08:31:36.245Z,882.00
2023-04-25T08:32:36.130Z,891.00
2023-04-25T08:33:36.363Z,891.00
2023-04-25T08:34:36.045Z,892.00
2023-04-25T08:35:36.005Z,889.00
2023-04-25T08:36:39.757Z,885.00
2023-04-25T08:37:35.970Z,884.00
2023-04-25T08:38:36.361Z,890.00
2023-04-25T08:39:35.893Z,894.00
2023-04-25T08:40:35.917Z,895.00
2023-04-25T08:41:35.934Z,900.00
2023-04-25T08:42:36.381Z,909.00
2023-04-25T08:43:36.945Z,912.00
2023-04-25T08:44:35.993Z,913.00
2023-04-25T08:45:42.944Z,919.00
2023-04-25T08:46:36.064Z,932.00
2023-04-25T08:47:35.993Z,937.00
2023-04-25T08:48:37.425Z,945.00
2023-04-25T08:49:35.995Z,949.00
2023-04-25T08:50:36.042Z,950.00
2023-04-25T08:51:36.588Z,948.00
2023-04-25T08:52:36.124Z,946.00
2023-04-25T08:53:36.507Z,944.00
2023-04-25T08:54:37.881Z,941.00
2023-04-25T08:55:36.135Z,938.00
2023-04-25T08:56:36.089Z,934.00
2023-04-25T08:57:36.083Z,930.00
2023-04-25T08:58:36.737Z,927.00
2023-04-25T08:59:38.578Z,922.00
2023-04-25T09:00:36.108Z,919.00
2023-04-25T09:01:36.056Z,915.00
2023-04-25T09:02:36.013Z,909.00
2023-04-25T09:03:36.086Z,909.00
2023-04-25T09:04:35.859Z,909.00
2023-04-25T09:05:35.826Z,909.00
2023-04-25T09:06:35.791Z,909.00
2023-04-25T09:07:35.731Z,908.00
2023-04-25T09:08:35.763Z,908.00
2023-04-25T09:09:35.705Z,908.00
2023-04-25T09:10:35.681Z,911.00
2023-04-25T09:11:35.921Z,908.00
2023-04-25T09:12:35.552Z,910.00
2023-04-25T09:13:35.529Z,908.00
2023-04-25T09:14:35.506Z,906.00
2023-04-25T09:15:35.476Z,904.00
2023-04-25T09:16:38.279Z,901.00
2023-04-25T09:17:35.442Z,899.00
2023-04-25T09:18:35.379Z,898.00
2023-04-25T09:20:37.671Z,899.00
2023-04-25T09:21:35.397Z,903.00
2023-04-25T09:22:35.248Z,904.00
2023-04-25T09:23:35.217Z,900.00
2023-04-25T09:24:35.188Z,899.00
2023-04-25T09:25:35.156Z,900.00
2023-04-25T09:26:35.198Z,901.00
2023-04-25T09:27:35.115Z,902.00
2023-04-25T09:28:35.103Z,904.00
2023-04-25T09:29:35.442Z,905.00
2023-04-25T09:30:35.534Z,908.00
2023-04-25T09:31:35.571Z,898.00
2023-04-25T09:32:35.664Z,888.00
2023-04-25T09:33:35.213Z,885.00
2023-04-25T09:34:35.476Z,872.00
2023-04-25T09:35:35.552Z,858.00
2023-04-25T09:36:35.897Z,826.00
2023-04-25T09:37:34.902Z,816.00
2023-04-25T09:38:34.908Z,803.00
2023-04-25T09:39:35.447Z,792.00
2023-04-25T09:40:35.413Z,779.00
2023-04-25T09:41:34.961Z,765.00
2023-04-25T09:42:34.986Z,750.00
2023-04-25T09:43:34.991Z,723.00
2023-04-25T09:44:35.024Z,698.00
2023-04-25T09:45:35.395Z,694.00
2023-04-25T09:46:35.108Z,686.00
2023-04-25T09:47:35.460Z,668.00
2023-04-25T09:48:35.868Z,649.00
2023-04-25T09:49:35.162Z,641.00
2023-04-25T09:50:35.223Z,637.00
2023-04-25T09:51:35.239Z,634.00
2023-04-25T09:52:35.261Z,631.00
2023-04-25T09:53:35.291Z,627.00
2023-04-25T09:54:35.409Z,619.00
2023-04-25T09:55:35.374Z,613.00
2023-04-25T09:56:35.383Z,605.00
2023-04-25T09:57:35.450Z,598.00
2023-04-25T09:58:35.478Z,595.00
2023-04-25T09:59:35.922Z,589.00
2023-04-25T10:00:35.498Z,583.00
2023-04-25T10:01:35.557Z,577.00
2023-04-25T10:02:35.999Z,571.00
2023-04-25T10:03:35.846Z,569.00
2023-04-25T10:04:36.037Z,565.00
2023-04-25T10:05:35.634Z,562.00
2023-04-25T10:06:35.667Z,558.00
2023-04-25T10:07:35.698Z,550.00
2023-04-25T10:08:35.728Z,548.00
2023-04-25T10:09:35.909Z,542.00
2023-04-25T10:10:36.312Z,538.00
2023-04-25T10:11:35.832Z,533.00
2023-04-25T10:12:35.868Z,531.00
2023-04-25T10:13:35.895Z,528.00
2023-04-25T10:14:36.414Z,529.00
2023-04-25T10:15:37.560Z,526.00
2023-04-25T10:16:35.938Z,524.00
2023-04-25T10:17:35.946Z,525.00
2023-04-25T10:18:35.895Z,525.00
2023-04-25T10:19:35.918Z,523.00
2023-04-25T10:20:35.833Z,523.00
2023-04-25T10:21:35.788Z,522.00
2023-04-25T10:22:35.952Z,522.00
2023-04-25T10:23:35.812Z,522.00
2023-04-25T10:24:35.929Z,516.00
2023-04-25T10:25:35.677Z,513.00
2023-04-25T10:26:35.711Z,509.00
2023-04-25T10:27:35.720Z,505.00
2023-04-25T10:28:35.772Z,503.00
2023-04-25T10:29:35.936Z,501.00
2023-04-25T10:30:36.021Z,499.00
2023-04-25T10:31:36.040Z,497.00
2023-04-25T10:32:36.001Z,492.00
2023-04-25T10:33:36.460Z,489.00
2023-04-25T10:34:36.034Z,490.00
2023-04-25T10:35:36.036Z,485.00
2023-04-25T10:36:36.062Z,482.00
2023-04-25T10:37:40.062Z,479.00
2023-04-25T10:38:36.217Z,475.00
2023-04-25T10:39:36.476Z,473.00
2023-04-25T10:40:36.251Z,473.00
2023-04-25T10:41:36.265Z,473.00
2023-04-25T10:42:36.298Z,472.00
2023-04-25T10:43:36.329Z,474.00
2023-04-25T10:44:36.429Z,473.00
2023-04-25T10:45:36.429Z,468.00
2023-04-25T10:46:36.531Z,467.00
2023-04-25T10:47:36.560Z,465.00
2023-04-25T10:48:36.572Z,462.00
2023-04-25T10:49:36.979Z,463.00
2023-04-25T10:50:36.650Z,462.00
2023-04-25T10:51:54.316Z,461.00
2023-04-25T10:52:36.676Z,458.00
2023-04-25T10:53:36.928Z,454.00
2023-04-25T10:54:36.602Z,452.00
2023-04-25T10:55:36.958Z,449.00
2023-04-25T10:56:36.540Z,450.00
2023-04-25T10:57:36.592Z,450.00
2023-04-25T10:58:36.933Z,451.00
2023-04-25T10:59:36.933Z,449.00
2023-04-25T11:00:53.161Z,450.00
2023-04-25T11:01:36.460Z,448.00
2023-04-25T11:02:36.455Z,447.00
2023-04-25T11:03:36.487Z,444.00
2023-04-25T11:04:37.039Z,442.00
2023-04-25T11:05:43.959Z,441.00
2023-04-25T11:06:36.320Z,443.00
2023-04-25T11:07:36.362Z,443.00
2023-04-25T11:08:36.268Z,442.00
2023-04-25T11:09:36.438Z,438.00
2023-04-25T11:10:36.689Z,437.00
2023-04-25T11:11:36.163Z,436.00
2023-04-25T11:12:36.133Z,434.00
2023-04-25T11:13:36.464Z,434.00
2023-04-25T11:14:36.091Z,433.00
2023-04-25T11:15:36.624Z,434.00
2023-04-25T11:16:35.077Z,439.00
2023-04-25T11:17:36.556Z,444.00
2023-04-25T11:18:35.996Z,448.00
2023-04-25T11:19:36.935Z,447.00
2023-04-25T11:20:35.952Z,444.00
2023-04-25T11:21:35.943Z,445.00
2023-04-25T11:22:36.204Z,445.00
2023-04-25T11:23:35.897Z,445.00
2023-04-25T11:24:36.025Z,446.00
2023-04-25T11:25:38.430Z,443.00
2023-04-25T11:26:35.991Z,444.00
2023-04-25T11:27:35.954Z,442.00
2023-04-25T11:28:35.814Z,445.00
2023-04-25T11:29:35.844Z,444.00
2023-04-25T11:30:35.773Z,441.00
2023-04-25T11:31:35.795Z,440.00
2023-04-25T11:33:34.677Z,438.00
2023-04-25T11:34:35.661Z,437.00
2023-04-25T11:35:35.965Z,438.00
2023-04-25T11:36:35.872Z,441.00
2023-04-25T11:37:35.604Z,443.00
2023-04-25T11:38:35.640Z,442.00
2023-04-25T11:39:35.555Z,443.00
2023-04-25T11:40:36.034Z,443.00
2023-04-25T11:41:35.537Z,443.00
2023-04-25T11:42:35.475Z,441.00
2023-04-25T11:43:35.612Z,440.00
2023-04-25T11:44:36.482Z,442.00
2023-04-25T11:45:35.496Z,443.00
2023-04-25T11:46:35.644Z,443.00
2023-04-25T11:47:35.441Z,445.00
2023-04-25T11:48:35.349Z,443.00
2023-04-25T11:49:35.475Z,444.00
2023-04-25T11:50:35.305Z,446.00
2023-04-25T11:51:35.575Z,447.00
2023-04-25T11:52:35.467Z,448.00
2023-04-25T11:53:35.238Z,447.00
2023-04-25T11:54:35.266Z,447.00
2023-04-25T11:55:35.195Z,447.00
2023-04-25T11:56:35.218Z,445.00
2023-04-25T11:57:35.454Z,446.00
2023-04-25T11:58:35.874Z,446.00
2023-04-25T11:59:35.140Z,446.00
2023-04-25T12:00:35.124Z,448.00
2023-04-25T12:01:35.857Z,448.00
2023-04-25T12:02:35.161Z,450.00
2023-04-25T12:03:35.767Z,450.00
2023-04-25T12:04:35.315Z,452.00
2023-04-25T12:05:35.471Z,454.00
2023-04-25T12:06:35.036Z,452.00
2023-04-25T12:07:35.460Z,456.00
2023-04-25T12:08:34.961Z,454.00
2023-04-25T12:09:34.989Z,456.00
2023-04-25T12:10:34.923Z,457.00
2023-04-25T12:11:34.920Z,456.00
2023-04-25T12:12:34.986Z,456.00
2023-04-25T12:13:34.918Z,456.00
2023-04-25T12:14:34.940Z,455.00
2023-04-25T12:15:34.958Z,459.00
2023-04-25T12:16:35.281Z,461.00
2023-04-25T12:17:34.970Z,461.00
2023-04-25T12:18:34.927Z,460.00
2023-04-25T12:19:34.925Z,460.00
2023-04-25T12:20:34.963Z,463.00
2023-04-25T12:21:38.828Z,462.00
2023-04-25T12:22:34.964Z,464.00
2023-04-25T12:23:34.965Z,462.00
2023-04-25T12:24:37.747Z,458.00
2023-04-25T12:25:34.966Z,455.00
2023-04-25T12:26:34.840Z,451.00
2023-04-25T12:27:34.874Z,451.00
2023-04-25T12:28:34.881Z,451.00
2023-04-25T12:29:47.866Z,453.00
2023-04-25T12:30:34.968Z,453.00